• Join FlightAware (Why Join?)
  • Login
  • US Flag 
04:55AM EDT


 

Airport Tracker/Info


-or-


 

Live Flight TrackerFlight Track Log ✈ N111KC ✈ 09-Jul-2014 ✈ KORL - KTOC

Flight Track Log - Related Links

Times and Time Zones

All times are in EDT time to prevent confusion due to time zone crossing. See the N111KC flight status page for this flight to view local times or setup timezone preferences in your user account.

Time Position Orientation Groundspeed Altitude Reporting Facility
EDT Latitude Longitude Course Direction KTS MPH feet Rate Location/Type
01:00PM 28.5500 -81.3167 90° East 109 125 600  Level Orlando TRACON
01:00PM 28.5500 -81.3000 90° East 116 133 1,000 600 Climbing Orlando TRACON
01:01PM 28.5833 -81.2667 41° Northeast 175 201 1,400 900 Climbing Orlando TRACON
01:02PM 28.6167 -81.2333 41° Northeast 163 188 2,900 1,200 Climbing Orlando TRACON
01:03PM 28.6667 -81.2167 16° North 166 191 3,800 720 Climbing Orlando TRACON
01:04PM 28.7297 -81.2306 349° North 195 224 4,600 1,080 Climbing Jacksonville Center
01:05PM 28.7714 -81.2297 North 158 182 6,200 1,380 Climbing Jacksonville Center
01:06PM 28.8156 -81.2386 350° North 160 184 7,400 1,260 Climbing Jacksonville Center
01:07PM 28.8556 -81.2664 329° Northwest 154 177 8,800 1,200 Climbing Jacksonville Center
01:08PM 28.8914 -81.2942 326° Northwest 164 189 9,800 1,020 Climbing Jacksonville Center
01:09PM 28.9272 -81.3222 326° Northwest 169 194 10,900 960 Climbing Jacksonville Center
01:10PM 28.9753 -81.3286 353° North 202 232 11,800 540 Climbing Jacksonville Center
01:11PM 29.0336 -81.3275 North 194 223 12,000 300 Climbing Jacksonville Center
01:12PM 29.0903 -81.3553 337° Northwest 215 247 12,400 720 Climbing Jacksonville Center
01:13PM 29.1408 -81.3853 333° Northwest 199 229 13,500 1,020 Climbing Jacksonville Center
01:14PM 29.1869 -81.4108 334° Northwest 193 222 14,500 960 Climbing Jacksonville Center
01:15PM 29.2311 -81.4292 340° North 181 208 15,500 900 Climbing Jacksonville Center
01:16PM 29.2814 -81.4475 342° North 181 208 16,400 900 Climbing Jacksonville Center
01:17PM 29.3294 -81.4633 344° North 181 208 17,300 720 Climbing Jacksonville Center
01:18PM 29.3756 -81.4819 341° North 176 203 17,900 540 Climbing Jacksonville Center
01:19PM 29.4219 -81.5072 335° Northwest 176 203 18,500 720 Climbing Jacksonville Center
01:20PM 29.4681 -81.5306 336° Northwest 176 203 19,400 780 Climbing Jacksonville Center
01:21PM 29.5142 -81.5539 336° Northwest 176 203 20,100 600 Climbing Jacksonville Center
01:22PM 29.5625 -81.5747 339° North 176 203 20,700 420 Climbing Jacksonville Center
01:23PM 29.6086 -81.5978 337° Northwest 176 203 21,000 120 Climbing Jacksonville Center
01:24PM 29.6631 -81.6233 338° Northwest 193 222 21,000  Level Jacksonville Center
01:25PM 29.7178 -81.6514 336° Northwest 204 235 21,000 -60 Level Jacksonville Center
01:26PM 29.7742 -81.6769 339° North 210 242 20,900 -60 Descending Jacksonville Center
01:27PM 29.8308 -81.7050 337° Northwest 215 247 20,900  Level Jacksonville Center
01:28PM 29.8875 -81.7331 337° Northwest 215 247 21,000  Climbing Jacksonville Center
01:29PM 29.9442 -81.7611 337° Northwest 215 247 21,000 -60 Level Jacksonville Center
01:30PM 30.0008 -81.7892 337° Northwest 215 247 20,900 -60 Descending Jacksonville Center
01:31PM 30.0572 -81.8150 338° Northwest 215 247 20,900  Level Jacksonville Center
01:32PM 30.1139 -81.8408 338° Northwest 215 247 20,900  Level Jacksonville Center
01:33PM 30.1683 -81.8692 336° Northwest 215 247 20,900  Level Jacksonville Center
01:34PM 30.2272 -81.8972 338° Northwest 215 247 21,000  Climbing Jacksonville Center
01:35PM 30.2878 -81.9158 345° North 215 247 21,000  Level Jacksonville Center
01:36PM 30.3506 -81.9344 346° North 215 247 21,000 -60 Level Jacksonville Center
01:37PM 30.4114 -81.9533 345° North 221 254 20,900 -60 Descending Jacksonville Center
01:38PM 30.4742 -81.9719 346° North 226 260 20,900  Level Jacksonville Center
01:39PM 30.5369 -81.9906 346° North 226 260 20,900  Level Jacksonville Center
01:40PM 30.6039 -82.0139 343° North 226 260 20,900  Level Jacksonville Center
01:41PM 30.6667 -82.0328 345° North 226 260 20,900  Level Jacksonville Center
01:42PM 30.7314 -82.0539 344° North 226 260 20,900  Level Jacksonville Center
01:43PM 30.7922 -82.0728 345° North 226 260 20,900  Level Jacksonville Center
01:44PM 30.8550 -82.0917 346° North 226 260 21,000  Climbing Jacksonville Center
01:45PM 30.9175 -82.1103 346° North 226 260 21,000  Level Jacksonville Center
01:46PM 30.9783 -82.1317 343° North 226 260 21,000  Level Jacksonville Center
01:47PM 31.0431 -82.1506 346° North 226 260 21,000 -60 Level Jacksonville Center
01:48PM 31.1039 -82.1719 343° North 226 260 20,900 -60 Descending Jacksonville Center
01:49PM 31.1667 -82.1908 346° North 226 260 20,900  Level Jacksonville Center
01:50PM 31.2294 -82.2097 346° North 226 260 20,900 120 Level Jacksonville Center
01:51PM 31.2900 -82.2289 345° North 226 260 21,200 300 Climbing Jacksonville Center
01:52PM 31.3464 -82.2503 342° North 221 254 21,600 300 Climbing Jacksonville Center
01:53PM 31.4008 -82.2669 345° North 202 232 21,900 240 Climbing Jacksonville Center
01:54PM 31.4594 -82.2836 346° North 202 232 22,100  Climbing Jacksonville Center
01:55PM 31.5178 -82.3003 346° North 207 238 22,000 -60 Descending Jacksonville Center
01:56PM 31.5806 -82.3194 345° North 213 245 22,000  Level Jacksonville Center
01:57PM 31.6369 -82.3361 346° North 226 260 22,000  Level Jacksonville Center
01:58PM 31.6978 -82.3553 345° North 226 260 22,000  Level Jacksonville Center
01:59PM 31.7606 -82.3744 345° North 226 260 22,000  Level Jacksonville Center
02:00PM 31.8231 -82.3939 345° North 226 260 22,000  Level Jacksonville Center
02:01PM 31.8858 -82.4131 345° North 226 260 22,000  Level Jacksonville Center
02:02PM 31.9486 -82.4347 344° North 226 260 22,000  Level Jacksonville Center
02:03PM 32.0114 -82.4517 347° North 226 260 22,000 -60 Level Jacksonville Center
02:04PM 32.0739 -82.4733 344° North 226 260 21,900 -60 Descending Jacksonville Center
02:05PM 32.1333 -82.4936 344° North 225 259 21,900  Level Atlanta Center
02:06PM 32.1964 -82.5122 346° North 230 265 22,000  Climbing Atlanta Center
02:07PM 32.2633 -82.5308 347° North 230 265 21,900 -60 Descending Atlanta Center
02:08PM 32.3242 -82.5542 342° North 225 259 21,900  Level Atlanta Center
02:09PM 32.3869 -82.5728 346° North 225 259 22,000  Climbing Atlanta Center
02:10PM 32.4456 -82.5942 343° North 225 259 21,900 -60 Descending Atlanta Center
02:11PM 32.5064 -82.6103 347° North 225 259 21,900  Level Atlanta Center
02:12PM 32.5692 -82.6314 344° North 225 259 21,900  Level Atlanta Center
02:13PM 32.6300 -82.6503 345° North 225 259 21,900  Level Atlanta Center
02:14PM 32.6886 -82.6692 345° North 225 259 21,900  Level Atlanta Center
02:15PM 32.7494 -82.6928 342° North 225 259 21,900  Level Atlanta Center
02:16PM 32.8103 -82.7092 347° North 225 259 22,000  Climbing Atlanta Center
02:17PM 32.8689 -82.7281 345° North 225 259 22,000  Level Atlanta Center
02:18PM 32.9297 -82.7494 344° North 225 259 22,000  Level Atlanta Center
02:19PM 32.9903 -82.7683 345° North 225 259 22,000  Level Atlanta Center
02:20PM 33.0489 -82.7872 345° North 225 259 22,000  Level Atlanta Center
02:21PM 33.1097 -82.8064 345° North 225 259 22,000 -300 Level Atlanta Center
02:22PM 33.1747 -82.8278 345° North 225 259 21,400 -1,080 Descending Atlanta Center
02:23PM 33.2436 -82.8492 345° North 237 273 19,900 -1,800 Descending Atlanta Center
02:24PM 33.3169 -82.8706 346° North 249 287 17,900 -1,980 Descending Atlanta Center
02:25PM 33.3881 -82.8944 344° North 259 298 16,000 -1,800 Descending Atlanta Center
02:26PM 33.4572 -82.9158 346° North 259 298 14,300 -1,620 Descending Atlanta Center
02:27PM 33.5200 -82.9375 344° North 253 291 12,800 -1,500 Descending Atlanta Center
02:28PM 33.5828 -82.9592 344° North 240 276 11,400 -960 Descending Atlanta Center
02:29PM 33.6414 -82.9808 343° North 224 258 10,900 -300 Descending Atlanta Center
02:30PM 33.7019 -82.9675 10° North 219 252 10,900  Level Atlanta Center
02:31PM 33.7622 -82.9569 North 219 252 11,000 60 Climbing Atlanta Center
02:32PM 33.8228 -82.9436 10° North 219 252 11,100 -720 Climbing Atlanta Center
02:33PM 33.8853 -82.9328 North 219 252 9,600 -1,500 Descending Atlanta Center
02:34PM 33.9456 -82.9069 20° North 248 285 8,200 -1,380 Descending Atlanta Center
02:35PM 34.0042 -82.9211 349° North 226 260 6,900 -1,200 Descending Atlanta Center
02:36PM 34.0606 -82.9356 348° North 209 241 5,800 -600 Descending Atlanta Center
02:37PM 34.1150 -82.9525 346° North 191 220 5,800 -120 Level Atlanta Center
02:38PM 34.1633 -82.9719 342° North 184 212 5,600 -360 Descending Atlanta Center
02:39PM 34.2011 -82.9989 329° Northwest 190 219 5,100 -660 Descending Atlanta Center
02:40PM 34.2450 -83.0311 325° Northwest 190 219 4,300 -600 Descending Atlanta Center
02:41PM 34.2558 -83.0455 325° Northwest  Level FlightAware Approximate
02:41PM 34.2786 -83.0633 322° Northwest 185 213 3,900  Level Atlanta Center
02:42PM 34.3186 -83.0931 328° Northwest 175 201 3,900  Level Atlanta Center
02:43PM 34.3564 -83.1203 329° Northwest 170 196 4,000  Climbing Atlanta Center
02:44PM 34.3983 -83.1525 328° Northwest 170 196 4,000  Level Atlanta Center
02:45PM 34.4444 -83.1850 330° Northwest 170 196 4,000  Level Atlanta Center
02:47PM 34.5022 -83.2259 330° Northwest  Level FlightAware Approximate